createdAt,value
2023-02-19T00:14:11.789Z,9.8
2023-02-19T00:18:21.968Z,10
2023-02-19T00:20:25.519Z,10.1
2023-02-19T00:22:29.096Z,9.5
2023-02-19T00:24:32.729Z,9.6
2023-02-19T00:30:46.465Z,9.9
2023-02-19T00:32:50.060Z,10.3
2023-02-19T00:34:53.620Z,10.1
2023-02-19T00:36:57.158Z,9.7
2023-02-19T00:41:04.332Z,9.5
2023-02-19T00:43:07.892Z,9.4
2023-02-19T00:45:14.561Z,9.9
2023-02-19T00:49:21.744Z,9.4
2023-02-19T00:50:25.019Z,9.8
2023-02-19T00:52:28.591Z,9.5
2023-02-19T00:54:32.151Z,9.5
2023-02-19T00:56:35.736Z,10.2
2023-02-19T01:00:45.898Z,9.4
2023-02-19T01:04:53.055Z,9.6
2023-02-19T01:15:15.530Z,9.5
2023-02-19T01:17:19.013Z,9.5
2023-02-19T01:21:26.178Z,9.3
2023-02-19T01:23:29.749Z,9.3
2023-02-19T01:25:33.321Z,9.4
2023-02-19T01:27:39.990Z,10.1
2023-02-19T01:29:43.544Z,9.5
2023-02-19T01:31:47.273Z,9.3
2023-02-19T01:35:54.252Z,9.2
2023-02-19T01:37:57.828Z,9.4
2023-02-19T01:40:01.427Z,9.5
2023-02-19T01:42:08.052Z,9.8
2023-02-19T01:44:11.633Z,9.5
2023-02-19T01:46:15.245Z,8.8
2023-02-19T01:49:22.135Z,10.3
2023-02-19T01:51:25.687Z,10.4
2023-02-19T01:53:29.264Z,8.8
2023-02-19T01:59:43.092Z,9.9
2023-02-19T02:05:53.780Z,10.3
2023-02-19T02:07:57.361Z,9.5
2023-02-19T02:10:04.041Z,9.1
2023-02-19T02:12:07.612Z,9
2023-02-19T02:14:11.176Z,10.3
2023-02-19T02:16:14.804Z,9
2023-02-19T02:18:18.340Z,10.4
2023-02-19T02:20:21.907Z,8.9
2023-02-19T02:22:25.510Z,9.6
2023-02-19T02:24:32.142Z,9.1
2023-02-19T02:26:35.729Z,8.9
2023-02-19T02:28:39.278Z,8.6
2023-02-19T02:30:42.976Z,9
2023-02-19T02:32:46.443Z,9.3
2023-02-19T02:34:50.053Z,10
2023-02-19T02:36:53.587Z,8.7
2023-02-19T02:41:03.812Z,9.2
2023-02-19T02:45:31.590Z,9.4
2023-02-19T02:47:35.143Z,9.8
2023-02-19T02:49:38.726Z,10.4
2023-02-19T02:51:45.342Z,9.7
2023-02-19T02:55:52.548Z,9.2
2023-02-19T02:57:56.126Z,9.1
2023-02-19T02:59:59.671Z,10.2
2023-02-19T03:02:03.281Z,9.8
2023-02-19T03:04:06.846Z,9.8
2023-02-19T03:06:13.510Z,10.3
2023-02-19T03:08:17.088Z,10.2
2023-02-19T03:12:24.268Z,8.6
2023-02-19T03:14:27.840Z,9.2
2023-02-19T03:16:31.506Z,9.2
2023-02-19T03:18:35.029Z,10.3
2023-02-19T03:20:41.633Z,8.7
2023-02-19T03:22:45.219Z,9.4
2023-02-19T03:26:52.428Z,9.1
2023-02-19T03:33:03.174Z,10
2023-02-19T03:35:09.833Z,9.7
2023-02-19T03:44:27.454Z,8.7
2023-02-19T03:46:31.052Z,10.1
2023-02-19T03:48:37.690Z,8.5
2023-02-19T03:50:41.246Z,10.3
2023-02-19T03:52:44.803Z,9.8
2023-02-19T03:54:48.396Z,10
2023-02-19T03:56:51.996Z,8.9
2023-02-19T03:58:55.556Z,9
2023-02-19T04:00:59.137Z,8.6
2023-02-19T04:03:05.782Z,10.1
2023-02-19T04:05:09.388Z,9.3
2023-02-19T04:07:12.955Z,8.5
2023-02-19T04:15:27.271Z,9.3
2023-02-19T04:17:33.911Z,10.1
2023-02-19T04:19:37.516Z,9.7
2023-02-19T04:21:41.105Z,9.2
2023-02-19T04:23:44.693Z,10
2023-02-19T04:25:48.238Z,9.3
2023-02-19T04:27:51.896Z,9.9
2023-02-19T04:29:55.426Z,8.7
2023-02-19T04:32:02.072Z,9
2023-02-19T04:34:05.686Z,8.6
2023-02-19T04:36:09.239Z,8.3
2023-02-19T04:37:12.560Z,8.5
2023-02-19T04:39:16.164Z,8.6
2023-02-19T04:41:19.729Z,9.1
2023-02-19T04:43:23.310Z,10
2023-02-19T04:49:37.144Z,8.5
2023-02-19T04:51:40.703Z,9
2023-02-19T04:53:44.277Z,9
2023-02-19T04:55:47.892Z,9.6
2023-02-19T04:57:51.483Z,8.4
2023-02-19T04:59:58.127Z,9.7
2023-02-19T05:02:01.718Z,9.9
2023-02-19T05:04:05.436Z,8.4
2023-02-19T05:06:08.886Z,9.6
2023-02-19T05:08:12.465Z,9.9
2023-02-19T05:10:16.029Z,8.3
2023-02-19T05:12:19.603Z,8.4
2023-02-19T05:14:26.244Z,8.2
2023-02-19T05:18:33.444Z,8.3
2023-02-19T05:20:37.049Z,8.5
2023-02-19T05:22:40.596Z,9.3
2023-02-19T05:26:47.796Z,9.7
2023-02-19T05:33:01.621Z,9.2
2023-02-19T05:38:12.134Z,8.5
2023-02-19T05:40:15.767Z,9.5
2023-02-19T05:42:22.381Z,8.9
2023-02-19T05:48:33.135Z,9.3
2023-02-19T05:54:43.925Z,9.5
2023-02-19T05:56:50.594Z,8.5
2023-02-19T05:58:54.191Z,8.1
2023-02-19T06:00:57.754Z,9.7
2023-02-19T06:05:04.944Z,8.1
2023-02-19T06:07:08.532Z,8.4
2023-02-19T06:09:12.083Z,8.3
2023-02-19T06:13:22.367Z,8.5
2023-02-19T06:15:25.933Z,8.1
2023-02-19T06:19:33.172Z,8.4
2023-02-19T06:25:47.033Z,8.8
2023-02-19T06:27:50.633Z,9.2
2023-02-19T06:29:54.220Z,9.3
2023-02-19T06:32:24.477Z,8.7
2023-02-19T06:34:27.771Z,8.1
2023-02-19T06:36:31.393Z,8
2023-02-19T06:42:45.239Z,9.3
2023-02-19T06:46:52.488Z,8.4
2023-02-19T06:48:56.039Z,8.4
2023-02-19T06:50:59.629Z,8.4
2023-02-19T06:53:06.258Z,8.4
2023-02-19T06:55:09.858Z,8.4
2023-02-19T06:57:13.459Z,8.4
2023-02-19T06:59:17.034Z,8.4
2023-02-19T07:03:24.225Z,8.4
2023-02-19T07:07:34.494Z,8.4
2023-02-19T07:09:38.090Z,8.4
2023-02-19T07:11:43.239Z,8.4
2023-02-19T07:15:52.092Z,8.4
2023-02-19T07:17:53.970Z,8.4
2023-02-19T07:19:57.573Z,8.3
2023-02-19T07:22:04.242Z,8.3
2023-02-19T07:24:07.800Z,8.3
2023-02-19T07:26:11.435Z,8.3
2023-02-19T07:27:14.745Z,8.3
2023-02-19T07:29:18.341Z,8.3
2023-02-19T07:31:22.028Z,8.3
2023-02-19T07:33:25.534Z,8.3
2023-02-19T07:35:32.194Z,8.3
2023-02-19T07:37:35.795Z,8.3
2023-02-19T07:41:43.007Z,8.3
2023-02-19T07:47:53.775Z,8.3
2023-02-19T07:50:00.474Z,8.2
2023-02-19T07:52:04.035Z,8.3
2023-02-19T07:54:07.676Z,8.3
2023-02-19T07:56:11.254Z,8.3
2023-02-19T07:58:14.830Z,8.2
2023-02-19T08:00:18.427Z,8.2
2023-02-19T08:02:22.037Z,8.2
2023-02-19T08:04:28.744Z,8.3
2023-02-19T08:06:32.309Z,8.2
2023-02-19T08:08:35.899Z,8.3
2023-02-19T08:10:39.476Z,8.3
2023-02-19T08:12:43.105Z,8.3
2023-02-19T08:23:04.157Z,8.3
2023-02-19T08:24:07.487Z,8.2
2023-02-19T08:26:11.093Z,8.3
2023-02-19T08:28:14.678Z,8.3
2023-02-19T08:30:18.338Z,8.3
2023-02-19T08:32:25.184Z,8.3
2023-02-19T08:34:28.544Z,8.3
2023-02-19T08:36:32.106Z,8.3
2023-02-19T08:40:39.326Z,8.3
2023-02-19T08:42:42.948Z,8.3
2023-02-19T08:46:53.201Z,8.3
2023-02-19T08:53:03.949Z,7.9
2023-02-19T08:55:07.614Z,7.9
2023-02-19T08:57:11.170Z,7.9
2023-02-19T08:59:14.781Z,8
2023-02-19T09:01:21.501Z,8
2023-02-19T09:03:25.030Z,8.1
2023-02-19T09:05:28.648Z,8.1
2023-02-19T09:07:32.213Z,8.1
2023-02-19T09:09:35.851Z,8.1
2023-02-19T09:11:39.446Z,8
2023-02-19T09:13:43.016Z,8
2023-02-19T09:15:49.725Z,8.1
2023-02-19T09:17:53.289Z,8.1
2023-02-19T09:19:56.858Z,8.1
2023-02-19T09:21:00.196Z,8
2023-02-19T09:23:03.811Z,7.9
2023-02-19T09:25:07.481Z,7.7
2023-02-19T09:29:17.639Z,7.6
2023-02-19T09:37:33.989Z,7.3
2023-02-19T09:39:48.026Z,7.3
2023-02-19T09:41:39.252Z,7.2
2023-02-19T09:45:49.488Z,7.1
2023-02-19T09:47:53.102Z,7.2
2023-02-19T09:49:56.703Z,7.3
2023-02-19T09:54:03.877Z,7.3
2023-02-19T09:56:07.495Z,7.3
2023-02-19T09:58:14.142Z,7.3
2023-02-19T10:00:17.752Z,7.3
2023-02-19T10:04:24.941Z,7.2
2023-02-19T10:08:32.114Z,7
2023-02-19T10:12:42.417Z,7.1
2023-02-19T10:14:46.013Z,7.1
2023-02-19T10:23:15.320Z,7.2
2023-02-19T10:25:21.975Z,7.4
2023-02-19T10:27:25.583Z,7.4
2023-02-19T10:31:32.949Z,7.5
2023-02-19T10:35:39.953Z,7.5
2023-02-19T10:37:43.580Z,7.5
2023-02-19T10:41:53.898Z,7.6
2023-02-19T10:46:01.055Z,7.5
2023-02-19T10:48:04.692Z,7.5
2023-02-19T10:50:08.269Z,7.6
2023-02-19T10:52:11.872Z,7.5
2023-02-19T10:54:18.553Z,7.5
2023-02-19T10:56:22.695Z,7.5
2023-02-19T10:58:26.290Z,7.6
2023-02-19T11:00:29.963Z,7.7
2023-02-19T11:02:33.520Z,7.9
2023-02-19T11:04:37.127Z,8.4
2023-02-19T11:12:54.552Z,8.8
2023-02-19T11:13:57.852Z,8.8
2023-02-19T11:16:01.543Z,8.6
2023-02-19T11:18:05.080Z,8.4
2023-02-19T11:20:08.654Z,8.6
2023-02-19T11:22:15.318Z,8.3
2023-02-19T11:24:18.911Z,8.2
2023-02-19T11:26:22.496Z,8
2023-02-19T11:32:33.285Z,7.6
2023-02-19T11:34:36.879Z,7.6
2023-02-19T11:36:43.558Z,8
2023-02-19T11:38:47.125Z,8.1
2023-02-19T11:40:50.739Z,8.1
2023-02-19T11:42:54.329Z,8.2
2023-02-19T11:44:57.896Z,8.1
2023-02-19T11:47:01.530Z,7.9
2023-02-19T11:49:05.118Z,8
2023-02-19T11:51:12.104Z,7.7
2023-02-19T11:53:15.358Z,7.7
2023-02-19T11:55:18.951Z,7.7
2023-02-19T11:57:22.562Z,7.6
2023-02-19T11:59:26.144Z,7.3
2023-02-19T12:01:29.745Z,7.4
2023-02-19T12:03:33.299Z,7.3
2023-02-19T12:05:39.972Z,7.3
2023-02-19T12:07:43.822Z,7.3
2023-02-19T12:09:47.402Z,7.3
2023-02-19T12:14:57.856Z,7.5
2023-02-19T12:17:01.460Z,7.5
2023-02-19T12:19:08.113Z,7.5
2023-02-19T12:21:11.994Z,7.4
2023-02-19T12:23:15.330Z,7.4
2023-02-19T12:25:18.979Z,7.5
2023-02-19T12:27:22.530Z,7.5
2023-02-19T12:31:31.376Z,7.7
2023-02-19T12:33:36.375Z,7.6
2023-02-19T12:35:39.973Z,7.6
2023-02-19T12:37:43.584Z,7.5
2023-02-19T12:39:47.135Z,7.5
2023-02-19T12:43:54.352Z,7.5
2023-02-19T12:45:57.979Z,7.6
2023-02-19T12:48:04.605Z,7.6
2023-02-19T12:50:08.211Z,7.6
2023-02-19T12:56:19.038Z,7.7
2023-02-19T12:58:22.596Z,7.7
2023-02-19T13:02:32.915Z,7.5
2023-02-19T13:06:40.104Z,7.5
2023-02-19T13:07:44.965Z,7.5
2023-02-19T13:09:48.521Z,7.6
2023-02-19T13:11:52.105Z,7.5
2023-02-19T13:13:55.736Z,7.4
2023-02-19T13:16:02.392Z,7.3
2023-02-19T13:18:06.026Z,7.4
2023-02-19T13:20:09.672Z,7.4
2023-02-19T13:22:13.167Z,7.3
2023-02-19T13:24:16.808Z,7.2
2023-02-19T13:26:20.407Z,7.2
2023-02-19T13:28:23.990Z,7.2
2023-02-19T13:30:30.710Z,7.3
2023-02-19T13:32:34.298Z,7.3
2023-02-19T13:34:37.852Z,7.4
2023-02-19T13:36:41.472Z,7.5
2023-02-19T13:38:45.111Z,7.4
2023-02-19T13:40:48.648Z,7.5
2023-02-19T13:42:52.243Z,7.6
2023-02-19T13:44:58.943Z,7.8
2023-02-19T13:47:02.541Z,7.7
2023-02-19T13:49:06.152Z,7.6
2023-02-19T13:51:10.070Z,7.4
2023-02-19T13:53:13.372Z,7.4
2023-02-19T13:55:16.949Z,7.4
2023-02-19T13:57:20.552Z,7.3
2023-02-19T13:59:27.206Z,7.5
2023-02-19T14:01:30.845Z,7.6
2023-02-19T14:03:34.440Z,7.8
2023-02-19T14:05:58.843Z,8
2023-02-19T14:08:02.464Z,8.1
2023-02-19T14:10:06.064Z,8.2
2023-02-19T14:12:15.452Z,8.2
2023-02-19T14:14:16.348Z,8.1
2023-02-19T14:16:19.929Z,8
2023-02-19T14:18:23.519Z,8
2023-02-19T14:20:27.144Z,7.8
2023-02-19T14:22:30.738Z,7.8
2023-02-19T14:24:34.345Z,7.8
2023-02-19T14:26:40.994Z,7.9
2023-02-19T14:28:44.605Z,7.8
2023-02-19T14:30:48.259Z,7.9
2023-02-19T14:37:01.048Z,8
2023-02-19T14:41:09.452Z,8
2023-02-19T14:57:41.091Z,7.9
2023-02-19T14:59:44.629Z,7.9
2023-02-19T15:00:47.967Z,7.8
2023-02-19T15:06:58.729Z,7.8
2023-02-19T15:11:09.568Z,7.8
2023-02-19T15:13:12.564Z,7.8
2023-02-19T15:15:16.179Z,7.7
2023-02-19T15:17:19.786Z,7.7
2023-02-19T15:19:23.389Z,7.7
2023-02-19T15:23:33.636Z,7.7
2023-02-19T15:27:40.832Z,7.7
2023-02-19T15:35:55.228Z,7.8
2023-02-19T15:38:01.916Z,7.8
2023-02-19T15:40:05.564Z,7.8
2023-02-19T15:42:09.118Z,7.8
2023-02-19T15:44:12.700Z,7.8
2023-02-19T15:46:16.341Z,7.7
2023-02-19T15:48:19.897Z,7.7
2023-02-19T15:50:23.506Z,7.7
2023-02-19T15:52:30.178Z,7.6
2023-02-19T15:54:33.767Z,7.6
2023-02-19T15:57:40.693Z,7.5
2023-02-19T15:59:44.294Z,7.5
2023-02-19T16:01:47.941Z,7.5
2023-02-19T16:03:51.490Z,7.5
2023-02-19T16:05:58.152Z,7.5
2023-02-19T16:08:01.744Z,7.5
2023-02-19T16:10:05.360Z,7.5
2023-02-19T16:12:09.004Z,7.5
2023-02-19T16:14:12.551Z,7.5
2023-02-19T16:16:16.222Z,7.5
2023-02-19T16:18:19.771Z,7.5
2023-02-19T16:20:26.422Z,7.5
2023-02-19T16:22:30.066Z,7.4
2023-02-19T16:28:40.888Z,7.4
2023-02-19T16:32:48.080Z,7.4
2023-02-19T16:36:58.334Z,7.4
2023-02-19T16:39:01.967Z,7.4
2023-02-19T16:41:05.511Z,7.4
2023-02-19T16:43:09.164Z,7.3
2023-02-19T16:45:12.743Z,7.3
2023-02-19T16:47:16.309Z,7.3
2023-02-19T16:49:22.968Z,7.3
2023-02-19T16:53:30.174Z,7.2
2023-02-19T16:54:33.542Z,7.2
2023-02-19T16:56:37.137Z,7.2
2023-02-19T16:58:40.759Z,7.2
2023-02-19T17:00:44.382Z,7.2
2023-02-19T17:02:51.024Z,7.2
2023-02-19T17:04:54.624Z,7.2
2023-02-19T17:06:58.219Z,7.1
2023-02-19T17:09:01.878Z,7.1
2023-02-19T17:11:05.428Z,7.1
2023-02-19T17:13:09.014Z,7.1
2023-02-19T17:15:12.595Z,7
2023-02-19T17:17:19.231Z,7.1
2023-02-19T17:19:22.864Z,7
2023-02-19T17:21:26.478Z,6.9
2023-02-19T17:23:30.099Z,7.1
2023-02-19T17:25:33.695Z,7
2023-02-19T17:27:37.308Z,6.9
2023-02-19T17:29:40.937Z,7.1
2023-02-19T17:31:47.646Z,6.9
2023-02-19T17:33:51.198Z,6.9
2023-02-19T17:35:54.751Z,7
2023-02-19T17:37:58.324Z,7.1
2023-02-19T17:40:01.934Z,7
2023-02-19T17:44:09.126Z,6.9
2023-02-19T17:48:19.383Z,6.9
2023-02-19T17:52:47.650Z,6.9
2023-02-19T17:54:51.289Z,6.8
2023-02-19T17:56:54.888Z,6.8
2023-02-19T18:01:05.196Z,6.8
2023-02-19T18:03:08.745Z,6.7
2023-02-19T18:05:12.339Z,6.9
2023-02-19T18:07:15.922Z,7
2023-02-19T18:09:19.542Z,6.8
2023-02-19T18:11:23.164Z,6.7
2023-02-19T18:13:29.784Z,6.9
2023-02-19T18:15:33.428Z,6.7
2023-02-19T18:17:36.990Z,6.8
2023-02-19T18:21:44.175Z,6.9
2023-02-19T18:23:47.757Z,6.7
2023-02-19T18:25:51.382Z,6.7
2023-02-19T18:27:58.037Z,6.6
2023-02-19T18:30:01.641Z,6.6
2023-02-19T18:34:08.816Z,6.7
2023-02-19T18:40:19.664Z,6.7
2023-02-19T18:44:30.045Z,6.6
2023-02-19T18:47:36.841Z,6.7
2023-02-19T18:49:40.447Z,6.6
2023-02-19T18:51:44.077Z,6.7
2023-02-19T18:53:47.656Z,6.5
2023-02-19T18:55:54.331Z,6.6
2023-02-19T18:57:57.920Z,6.7
2023-02-19T19:00:01.515Z,6.6
2023-02-19T19:12:27.696Z,6.4
2023-02-19T19:14:31.327Z,6.5
2023-02-19T19:16:34.915Z,6.5
2023-02-19T19:18:38.526Z,6.5
2023-02-19T19:20:42.136Z,6.5
2023-02-19T19:24:52.440Z,6.2
2023-02-19T19:28:59.650Z,6.3
2023-02-19T19:31:03.293Z,6.3
2023-02-19T19:33:06.841Z,6.3
2023-02-19T19:35:10.480Z,6.3
2023-02-19T19:37:14.081Z,6.2
2023-02-19T19:43:27.987Z,6.2
2023-02-19T19:48:38.529Z,6.2
2023-02-19T19:52:48.888Z,5.9
2023-02-19T20:03:06.961Z,5.7
2023-02-19T20:05:10.594Z,5.6
2023-02-19T20:07:17.332Z,5.5
2023-02-19T20:09:20.817Z,5.6
2023-02-19T20:11:24.502Z,5.6
2023-02-19T20:13:28.089Z,5.5
2023-02-19T20:15:31.721Z,5.5
2023-02-19T20:17:35.331Z,5.3
2023-02-19T20:19:38.978Z,5.4
2023-02-19T20:21:45.633Z,5.3
2023-02-19T20:23:49.275Z,5.4
2023-02-19T20:27:56.516Z,5.2
2023-02-19T20:30:00.142Z,5.3
2023-02-19T20:32:03.989Z,5.2
2023-02-19T20:38:17.684Z,5.2
2023-02-19T20:40:21.316Z,5.1
2023-02-19T20:43:28.644Z,5.1
2023-02-19T20:45:31.895Z,5.1
2023-02-19T20:47:35.521Z,4.9
2023-02-19T20:49:42.247Z,5
2023-02-19T20:53:49.495Z,4.9
2023-02-19T20:55:53.104Z,4.9
2023-02-19T20:57:56.705Z,4.9
2023-02-19T21:00:00.337Z,4.9
2023-02-19T21:02:03.983Z,5
2023-02-19T21:04:10.668Z,4.9
2023-02-19T21:06:14.561Z,5
2023-02-19T21:08:17.972Z,4.9
2023-02-19T21:10:21.577Z,4.9
2023-02-19T21:12:25.233Z,4.9
2023-02-19T21:14:28.847Z,4.9
2023-02-19T21:16:32.594Z,4.7
2023-02-19T21:18:39.162Z,4.8
2023-02-19T21:20:42.795Z,4.8
2023-02-19T21:22:46.383Z,4.8
2023-02-19T21:24:50.029Z,4.8
2023-02-19T21:26:53.656Z,4.8
2023-02-19T21:28:57.282Z,4.8
2023-02-19T21:31:01.009Z,4.8
2023-02-19T21:33:07.598Z,4.6
2023-02-19T21:35:11.240Z,4.7
2023-02-19T21:37:14.880Z,4.8
2023-02-19T21:39:33.171Z,4.8
2023-02-19T21:41:36.821Z,4.8
2023-02-19T21:43:40.418Z,4.8
2023-02-19T21:47:50.773Z,4.8
2023-02-19T21:51:57.986Z,4.6
2023-02-19T21:54:01.608Z,4.8
2023-02-19T21:56:05.234Z,4.7
2023-02-19T21:58:08.866Z,4.9
2023-02-19T22:00:15.566Z,4.7
2023-02-19T22:02:19.191Z,4.8
2023-02-19T22:04:22.818Z,4.8
2023-02-19T22:14:44.054Z,4.8
2023-02-19T22:16:47.736Z,4.8
2023-02-19T22:18:51.328Z,4.8
2023-02-19T22:20:54.973Z,4.6
2023-02-19T22:22:58.592Z,4.7
2023-02-19T22:25:02.244Z,4.7
2023-02-19T22:27:05.874Z,4.8
2023-02-19T22:29:12.560Z,4.8
2023-02-19T22:31:16.216Z,4.8
2023-02-19T22:33:19.817Z,4.7
2023-02-19T22:34:23.149Z,4.8
2023-02-19T22:38:30.409Z,4.8
2023-02-19T22:40:34.074Z,4.9
2023-02-19T22:42:40.788Z,4.9
2023-02-19T22:44:44.449Z,4.8
2023-02-19T22:46:48.075Z,4.8
2023-02-19T22:48:51.710Z,4.8
2023-02-19T22:50:55.338Z,4.9
2023-02-19T22:52:58.982Z,4.7
2023-02-19T22:55:02.603Z,4.8
2023-02-19T22:57:09.528Z,4.7
2023-02-19T22:59:12.950Z,4.8
2023-02-19T23:01:16.736Z,4.8
2023-02-19T23:03:20.233Z,4.9
2023-02-19T23:05:23.843Z,4.9
2023-02-19T23:09:31.151Z,5
2023-02-19T23:11:37.819Z,5
2023-02-19T23:17:48.815Z,5
2023-02-19T23:31:17.083Z,5.3
2023-02-19T23:33:20.646Z,5.3
2023-02-19T23:35:24.259Z,5.3
2023-02-19T23:37:27.862Z,5.3
2023-02-19T23:39:34.546Z,5.3
2023-02-19T23:41:38.200Z,5.3
2023-02-19T23:43:41.820Z,5.3
2023-02-19T23:45:45.473Z,5.3
2023-02-19T23:47:49.044Z,5.3
2023-02-19T23:49:52.686Z,5.4
2023-02-19T23:51:56.331Z,5.3
2023-02-19T23:54:03.021Z,5.4
2023-02-19T23:56:06.660Z,5.4
